Marienville, PA

11:46 PM EST on January 25, 2015 (GMT -0500)
Bradford Regional | Change Station
CLOSE
Current Station
Airport
Location: Bradford,
Elevation: 2142 ft
Nearby Weather Stations
Active Advisory: Winter Weather Advisory Active Notice: Public Information Statement

Elev 2142 ft 41.80 °N, 78.64 °W | Updated 53 minutes ago

Snow
Snow
15 °F
Feels Like 5 °F
N
7
Wind Variable Wind from ENE

Today
High -- | Low -- °F
--% Chance of Precip.
Yesterday
High -- | Low -- °F
Precip. -- in
7:34 AM 5:23 PM
Waxing Crescent, 39% visible
Pressure 29.92 in
Visibility 10.0 miles
Clouds Overcast 5000 ft
Windchill 5 °F
Dew Point 5 °F
Humidity 64%
Rainfall 0.00 in
Snow Depth Not available.
UV 0 out of 12
Pollen .10 out of 12
Air Quality Not available.
Flu Activity Not available.
METAR KBFD 260353Z AUTO 06006KT 10SM OVC050 M09/M15 A2983 RMK AO2 SLP131 T10941150

More Conditions Fewer Conditions

Pressure 29.92 in
Visibility 10.0 miles
Clouds Overcast 5000 ft
Windchill 5 °F
Dew Point 5 °F
Humidity 64%
Rainfall 0.00 in
Snow Depth Not available.
UV 0 out of 12
Pollen .10 out of 12
Air Quality Not available.
Flu Activity Not available.
METAR KBFD 260353Z AUTO 06006KT 10SM OVC050 M09/M15 A2983 RMK AO2 SLP131 T10941150

More Conditions Fewer Conditions

10-Day Weather Forecast

Almanac

Astronomy

Jan. 25, 2015 Rise Set
Actual Time
Civil Twilight
Nautical Twilight
Astronomical Twilight
Moon
Length of Visible Light
Length of Day
Tomorrow will be .
, % of the Moon is Illuminated

Today's Extremes

State Highs State Lows

Community

WunderPhotos

Upload Photos

1,790,139 photos uploaded!

WunderBlogs® & News

Nearby

Air Quality

  Air Quality AQ Index Pollutant
Not available.

Snow Depth

Station Depth Elevation

Earthquake Activity

City Distance Mag. Time & Date
Minimum magnitude displayed is 2.5.

Coastal Water Temperatures

Place Temperature

Nearby Weather Stations